sensor_id;sensor_type;location;lat;lon;timestamp;P1;durP1;ratioP1;P2;durP2;ratioP2
11614;SDS011;5863;52.832;4.758;2022-12-16T00:01:04;6.63;;;1.23;;
11614;SDS011;5863;52.832;4.758;2022-12-16T00:03:32;3.73;;;1.40;;
11614;SDS011;5863;52.832;4.758;2022-12-16T00:06:00;4.30;;;1.50;;
11614;SDS011;5863;52.832;4.758;2022-12-16T00:08:28;3.50;;;1.27;;
11614;SDS011;5863;52.832;4.758;2022-12-16T00:10:57;3.50;;;1.23;;
11614;SDS011;5863;52.832;4.758;2022-12-16T00:13:27;4.23;;;1.70;;
11614;SDS011;5863;52.832;4.758;2022-12-16T00:15:54;3.13;;;0.97;;
11614;SDS011;5863;52.832;4.758;2022-12-16T00:18:21;6.03;;;1.20;;
11614;SDS011;5863;52.832;4.758;2022-12-16T00:20:48;2.73;;;1.03;;
11614;SDS011;5863;52.832;4.758;2022-12-16T00:23:19;6.57;;;1.70;;
11614;SDS011;5863;52.832;4.758;2022-12-16T00:25:46;3.63;;;1.47;;
11614;SDS011;5863;52.832;4.758;2022-12-16T00:28:14;6.30;;;1.30;;
11614;SDS011;5863;52.832;4.758;2022-12-16T00:30:41;3.07;;;1.50;;
11614;SDS011;5863;52.832;4.758;2022-12-16T00:33:08;4.90;;;1.17;;
11614;SDS011;5863;52.832;4.758;2022-12-16T00:35:37;3.83;;;1.30;;
11614;SDS011;5863;52.832;4.758;2022-12-16T00:38:03;10.07;;;1.47;;
11614;SDS011;5863;52.832;4.758;2022-12-16T00:40:31;3.03;;;1.30;;
11614;SDS011;5863;52.832;4.758;2022-12-16T00:42:58;2.80;;;1.37;;
11614;SDS011;5863;52.832;4.758;2022-12-16T00:45:25;2.10;;;1.27;;
11614;SDS011;5863;52.832;4.758;2022-12-16T00:47:52;9.60;;;1.60;;
11614;SDS011;5863;52.832;4.758;2022-12-16T00:50:19;4.20;;;1.50;;
11614;SDS011;5863;52.832;4.758;2022-12-16T00:52:46;4.90;;;1.47;;
11614;SDS011;5863;52.832;4.758;2022-12-16T00:55:13;4.00;;;1.27;;
11614;SDS011;5863;52.832;4.758;2022-12-16T00:57:42;6.83;;;1.50;;
11614;SDS011;5863;52.832;4.758;2022-12-16T01:00:10;5.00;;;1.73;;
11614;SDS011;5863;52.832;4.758;2022-12-16T01:02:38;5.53;;;1.30;;
11614;SDS011;5863;52.832;4.758;2022-12-16T01:05:06;3.93;;;1.30;;
11614;SDS011;5863;52.832;4.758;2022-12-16T01:07:33;4.47;;;1.47;;
11614;SDS011;5863;52.832;4.758;2022-12-16T01:10:00;9.43;;;1.83;;
11614;SDS011;5863;52.832;4.758;2022-12-16T01:12:29;4.07;;;1.60;;
11614;SDS011;5863;52.832;4.758;2022-12-16T01:15:03;5.17;;;1.47;;
11614;SDS011;5863;52.832;4.758;2022-12-16T01:17:32;4.87;;;1.50;;
11614;SDS011;5863;52.832;4.758;2022-12-16T01:20:00;5.80;;;1.20;;
11614;SDS011;5863;52.832;4.758;2022-12-16T01:22:29;3.80;;;1.53;;
11614;SDS011;5863;52.832;4.758;2022-12-16T01:25:00;3.67;;;1.23;;
11614;SDS011;5863;52.832;4.758;2022-12-16T01:27:27;5.93;;;1.77;;
11614;SDS011;5863;52.832;4.758;2022-12-16T01:29:54;5.60;;;1.60;;
11614;SDS011;5863;52.832;4.758;2022-12-16T01:32:29;6.77;;;1.73;;
11614;SDS011;5863;52.832;4.758;2022-12-16T01:34:55;3.33;;;1.70;;
11614;SDS011;5863;52.832;4.758;2022-12-16T01:37:22;5.00;;;1.53;;
11614;SDS011;5863;52.832;4.758;2022-12-16T01:39:49;4.53;;;1.43;;
11614;SDS011;5863;52.832;4.758;2022-12-16T01:42:17;5.80;;;1.80;;
11614;SDS011;5863;52.832;4.758;2022-12-16T01:44:46;4.20;;;1.33;;
11614;SDS011;5863;52.832;4.758;2022-12-16T01:47:16;3.33;;;1.80;;
11614;SDS011;5863;52.832;4.758;2022-12-16T01:49:48;6.87;;;1.50;;
11614;SDS011;5863;52.832;4.758;2022-12-16T01:52:20;4.50;;;1.87;;
11614;SDS011;5863;52.832;4.758;2022-12-16T01:54:51;3.20;;;1.40;;
11614;SDS011;5863;52.832;4.758;2022-12-16T01:57:23;5.23;;;1.50;;
11614;SDS011;5863;52.832;4.758;2022-12-16T01:59:55;9.37;;;1.90;;
11614;SDS011;5863;52.832;4.758;2022-12-16T02:02:22;8.27;;;1.50;;
11614;SDS011;5863;52.832;4.758;2022-12-16T02:04:52;4.30;;;1.70;;
11614;SDS011;5863;52.832;4.758;2022-12-16T02:07:37;6.43;;;1.33;;
11614;SDS011;5863;52.832;4.758;2022-12-16T02:10:04;5.13;;;1.60;;
11614;SDS011;5863;52.832;4.758;2022-12-16T02:12:35;2.57;;;1.30;;
11614;SDS011;5863;52.832;4.758;2022-12-16T02:15:12;3.33;;;1.40;;
11614;SDS011;5863;52.832;4.758;2022-12-16T02:17:54;3.20;;;1.40;;
11614;SDS011;5863;52.832;4.758;2022-12-16T02:20:36;4.37;;;1.27;;
11614;SDS011;5863;52.832;4.758;2022-12-16T02:23:37;3.53;;;1.37;;
11614;SDS011;5863;52.832;4.758;2022-12-16T02:26:25;4.07;;;1.67;;
11614;SDS011;5863;52.832;4.758;2022-12-16T02:32:18;2.87;;;1.43;;
11614;SDS011;5863;52.832;4.758;2022-12-16T02:34:52;4.37;;;1.70;;
11614;SDS011;5863;52.832;4.758;2022-12-16T02:37:29;4.33;;;1.27;;
11614;SDS011;5863;52.832;4.758;2022-12-16T02:40:03;5.07;;;1.50;;
11614;SDS011;5863;52.832;4.758;2022-12-16T02:42:36;3.70;;;1.20;;
11614;SDS011;5863;52.832;4.758;2022-12-16T02:45:12;5.33;;;1.23;;
11614;SDS011;5863;52.832;4.758;2022-12-16T02:47:44;4.10;;;1.53;;
11614;SDS011;5863;52.832;4.758;2022-12-16T02:50:14;5.10;;;1.50;;
11614;SDS011;5863;52.832;4.758;2022-12-16T02:52:45;5.43;;;1.10;;
11614;SDS011;5863;52.832;4.758;2022-12-16T02:55:12;5.63;;;1.30;;
11614;SDS011;5863;52.832;4.758;2022-12-16T03:00:34;4.20;;;1.40;;
11614;SDS011;5863;52.832;4.758;2022-12-16T03:03:15;6.60;;;1.60;;
11614;SDS011;5863;52.832;4.758;2022-12-16T03:05:45;4.00;;;1.30;;
11614;SDS011;5863;52.832;4.758;2022-12-16T03:08:14;4.13;;;1.40;;
11614;SDS011;5863;52.832;4.758;2022-12-16T03:10:49;3.57;;;1.13;;
11614;SDS011;5863;52.832;4.758;2022-12-16T03:13:21;8.90;;;1.30;;
11614;SDS011;5863;52.832;4.758;2022-12-16T03:15:51;4.17;;;1.40;;
11614;SDS011;5863;52.832;4.758;2022-12-16T03:18:20;2.67;;;1.30;;
11614;SDS011;5863;52.832;4.758;2022-12-16T03:20:49;1.97;;;1.30;;
11614;SDS011;5863;52.832;4.758;2022-12-16T03:23:21;3.07;;;1.57;;
11614;SDS011;5863;52.832;4.758;2022-12-16T03:25:53;4.17;;;1.30;;
11614;SDS011;5863;52.832;4.758;2022-12-16T03:28:28;2.20;;;1.13;;
11614;SDS011;5863;52.832;4.758;2022-12-16T03:31:03;2.07;;;1.27;;
11614;SDS011;5863;52.832;4.758;2022-12-16T03:33:41;3.67;;;1.27;;
11614;SDS011;5863;52.832;4.758;2022-12-16T03:36:14;6.43;;;1.40;;
11614;SDS011;5863;52.832;4.758;2022-12-16T03:38:45;3.63;;;1.37;;
11614;SDS011;5863;52.832;4.758;2022-12-16T03:41:13;2.20;;;1.10;;
11614;SDS011;5863;52.832;4.758;2022-12-16T03:43:41;3.43;;;1.60;;
11614;SDS011;5863;52.832;4.758;2022-12-16T03:46:08;5.37;;;1.80;;
11614;SDS011;5863;52.832;4.758;2022-12-16T03:48:43;3.90;;;1.90;;
11614;SDS011;5863;52.832;4.758;2022-12-16T03:51:12;6.13;;;2.70;;
11614;SDS011;5863;52.832;4.758;2022-12-16T03:53:39;5.90;;;2.23;;
11614;SDS011;5863;52.832;4.758;2022-12-16T03:56:06;4.50;;;2.37;;
11614;SDS011;5863;52.832;4.758;2022-12-16T03:58:33;4.27;;;2.00;;
11614;SDS011;5863;52.832;4.758;2022-12-16T04:01:02;4.33;;;2.13;;
11614;SDS011;5863;52.832;4.758;2022-12-16T04:03:28;5.20;;;2.20;;
11614;SDS011;5863;52.832;4.758;2022-12-16T04:06:01;2.80;;;1.90;;
11614;SDS011;5863;52.832;4.758;2022-12-16T04:08:28;7.27;;;2.17;;
11614;SDS011;5863;52.832;4.758;2022-12-16T04:10:55;5.20;;;1.90;;
11614;SDS011;5863;52.832;4.758;2022-12-16T04:13:39;3.57;;;2.00;;
11614;SDS011;5863;52.832;4.758;2022-12-16T04:16:23;3.97;;;1.83;;
11614;SDS011;5863;52.832;4.758;2022-12-16T04:19:10;4.53;;;1.87;;
11614;SDS011;5863;52.832;4.758;2022-12-16T04:22:02;4.83;;;1.60;;
11614;SDS011;5863;52.832;4.758;2022-12-16T04:24:46;7.30;;;2.03;;
11614;SDS011;5863;52.832;4.758;2022-12-16T04:27:13;4.70;;;1.47;;
11614;SDS011;5863;52.832;4.758;2022-12-16T04:29:53;2.67;;;1.20;;
11614;SDS011;5863;52.832;4.758;2022-12-16T04:32:42;4.00;;;1.40;;
11614;SDS011;5863;52.832;4.758;2022-12-16T04:35:26;5.43;;;1.60;;
11614;SDS011;5863;52.832;4.758;2022-12-16T04:38:12;4.67;;;1.60;;
11614;SDS011;5863;52.832;4.758;2022-12-16T04:40:56;7.03;;;1.97;;
11614;SDS011;5863;52.832;4.758;2022-12-16T04:43:41;2.90;;;1.53;;
11614;SDS011;5863;52.832;4.758;2022-12-16T04:46:40;3.57;;;1.47;;
11614;SDS011;5863;52.832;4.758;2022-12-16T04:49:24;3.17;;;1.57;;
11614;SDS011;5863;52.832;4.758;2022-12-16T04:52:13;2.53;;;1.60;;
11614;SDS011;5863;52.832;4.758;2022-12-16T04:55:02;5.33;;;1.80;;
11614;SDS011;5863;52.832;4.758;2022-12-16T04:57:48;6.13;;;1.60;;
11614;SDS011;5863;52.832;4.758;2022-12-16T05:00:34;2.73;;;1.40;;
11614;SDS011;5863;52.832;4.758;2022-12-16T05:03:18;4.73;;;1.50;;
11614;SDS011;5863;52.832;4.758;2022-12-16T05:06:02;2.33;;;1.60;;
11614;SDS011;5863;52.832;4.758;2022-12-16T05:08:46;5.10;;;1.90;;
11614;SDS011;5863;52.832;4.758;2022-12-16T05:11:28;2.57;;;1.40;;
11614;SDS011;5863;52.832;4.758;2022-12-16T05:14:17;2.20;;;1.63;;
11614;SDS011;5863;52.832;4.758;2022-12-16T05:17:01;2.90;;;1.37;;
11614;SDS011;5863;52.832;4.758;2022-12-16T05:19:45;1.60;;;1.50;;
11614;SDS011;5863;52.832;4.758;2022-12-16T05:22:34;3.90;;;1.43;;
11614;SDS011;5863;52.832;4.758;2022-12-16T05:25:19;3.23;;;1.33;;
11614;SDS011;5863;52.832;4.758;2022-12-16T05:28:10;2.80;;;1.70;;
11614;SDS011;5863;52.832;4.758;2022-12-16T05:30:55;1.90;;;1.33;;
11614;SDS011;5863;52.832;4.758;2022-12-16T05:33:39;2.97;;;1.60;;
11614;SDS011;5863;52.832;4.758;2022-12-16T05:36:23;8.03;;;3.00;;
11614;SDS011;5863;52.832;4.758;2022-12-16T05:39:07;5.63;;;2.80;;
11614;SDS011;5863;52.832;4.758;2022-12-16T05:42:02;4.50;;;2.10;;
11614;SDS011;5863;52.832;4.758;2022-12-16T05:44:48;3.03;;;1.90;;
11614;SDS011;5863;52.832;4.758;2022-12-16T05:47:33;3.50;;;1.90;;
11614;SDS011;5863;52.832;4.758;2022-12-16T05:50:17;5.37;;;1.80;;
11614;SDS011;5863;52.832;4.758;2022-12-16T05:53:04;3.10;;;1.80;;
11614;SDS011;5863;52.832;4.758;2022-12-16T05:55:48;7.20;;;1.77;;
11614;SDS011;5863;52.832;4.758;2022-12-16T05:58:34;3.23;;;1.70;;
11614;SDS011;5863;52.832;4.758;2022-12-16T06:01:20;2.27;;;1.50;;
11614;SDS011;5863;52.832;4.758;2022-12-16T06:04:05;2.77;;;1.70;;
11614;SDS011;5863;52.832;4.758;2022-12-16T06:06:49;5.73;;;1.93;;
11614;SDS011;5863;52.832;4.758;2022-12-16T06:09:38;4.03;;;1.60;;
11614;SDS011;5863;52.832;4.758;2022-12-16T06:12:22;3.20;;;1.67;;
11614;SDS011;5863;52.832;4.758;2022-12-16T06:15:07;4.80;;;1.80;;
11614;SDS011;5863;52.832;4.758;2022-12-16T06:17:53;6.13;;;2.07;;
11614;SDS011;5863;52.832;4.758;2022-12-16T06:20:37;5.97;;;2.30;;
11614;SDS011;5863;52.832;4.758;2022-12-16T06:23:22;1.93;;;1.60;;
11614;SDS011;5863;52.832;4.758;2022-12-16T06:26:07;2.63;;;1.87;;
11614;SDS011;5863;52.832;4.758;2022-12-16T06:28:51;6.90;;;1.70;;
11614;SDS011;5863;52.832;4.758;2022-12-16T06:31:43;6.77;;;1.60;;
11614;SDS011;5863;52.832;4.758;2022-12-16T06:34:29;5.83;;;1.77;;
11614;SDS011;5863;52.832;4.758;2022-12-16T06:37:13;8.53;;;1.63;;
11614;SDS011;5863;52.832;4.758;2022-12-16T06:40:04;2.93;;;1.57;;
11614;SDS011;5863;52.832;4.758;2022-12-16T06:42:49;4.33;;;1.67;;
11614;SDS011;5863;52.832;4.758;2022-12-16T06:45:33;4.07;;;1.63;;
11614;SDS011;5863;52.832;4.758;2022-12-16T06:48:17;2.17;;;1.20;;
11614;SDS011;5863;52.832;4.758;2022-12-16T06:51:03;5.23;;;1.70;;
11614;SDS011;5863;52.832;4.758;2022-12-16T06:53:48;3.73;;;1.70;;
11614;SDS011;5863;52.832;4.758;2022-12-16T06:56:32;5.00;;;1.67;;
11614;SDS011;5863;52.832;4.758;2022-12-16T06:59:16;1.80;;;1.50;;
11614;SDS011;5863;52.832;4.758;2022-12-16T07:02:00;2.00;;;1.47;;
11614;SDS011;5863;52.832;4.758;2022-12-16T07:04:44;4.77;;;1.40;;
11614;SDS011;5863;52.832;4.758;2022-12-16T07:07:30;2.37;;;1.40;;
11614;SDS011;5863;52.832;4.758;2022-12-16T07:10:14;3.50;;;1.50;;
11614;SDS011;5863;52.832;4.758;2022-12-16T07:12:59;5.57;;;1.70;;
11614;SDS011;5863;52.832;4.758;2022-12-16T07:15:43;3.70;;;1.70;;
11614;SDS011;5863;52.832;4.758;2022-12-16T07:18:28;2.20;;;1.40;;
11614;SDS011;5863;52.832;4.758;2022-12-16T07:21:12;6.80;;;1.93;;
11614;SDS011;5863;52.832;4.758;2022-12-16T07:23:58;5.10;;;2.17;;
11614;SDS011;5863;52.832;4.758;2022-12-16T07:26:42;6.13;;;2.10;;
11614;SDS011;5863;52.832;4.758;2022-12-16T07:29:26;2.53;;;1.97;;
11614;SDS011;5863;52.832;4.758;2022-12-16T07:32:10;5.27;;;1.80;;
11614;SDS011;5863;52.832;4.758;2022-12-16T07:34:54;5.07;;;1.77;;
11614;SDS011;5863;52.832;4.758;2022-12-16T07:37:39;2.17;;;1.50;;
11614;SDS011;5863;52.832;4.758;2022-12-16T07:40:27;3.60;;;1.70;;
11614;SDS011;5863;52.832;4.758;2022-12-16T07:43:11;2.20;;;1.73;;
11614;SDS011;5863;52.832;4.758;2022-12-16T07:45:55;6.10;;;1.97;;
11614;SDS011;5863;52.832;4.758;2022-12-16T07:48:40;4.83;;;1.90;;
11614;SDS011;5863;52.832;4.758;2022-12-16T07:51:30;5.00;;;2.00;;
11614;SDS011;5863;52.832;4.758;2022-12-16T07:54:14;3.97;;;2.00;;
11614;SDS011;5863;52.832;4.758;2022-12-16T07:56:59;5.17;;;2.00;;
11614;SDS011;5863;52.832;4.758;2022-12-16T07:59:43;5.70;;;2.30;;
11614;SDS011;5863;52.832;4.758;2022-12-16T08:02:28;3.57;;;2.00;;
11614;SDS011;5863;52.832;4.758;2022-12-16T08:05:12;4.43;;;2.40;;
11614;SDS011;5863;52.832;4.758;2022-12-16T08:07:56;3.67;;;2.00;;
11614;SDS011;5863;52.832;4.758;2022-12-16T08:10:48;3.87;;;2.50;;
11614;SDS011;5863;52.832;4.758;2022-12-16T08:13:34;6.90;;;2.30;;
11614;SDS011;5863;52.832;4.758;2022-12-16T08:16:18;5.70;;;2.47;;
11614;SDS011;5863;52.832;4.758;2022-12-16T08:19:02;3.87;;;2.47;;
11614;SDS011;5863;52.832;4.758;2022-12-16T08:21:46;9.13;;;2.63;;
11614;SDS011;5863;52.832;4.758;2022-12-16T08:24:35;7.20;;;2.63;;
11614;SDS011;5863;52.832;4.758;2022-12-16T08:27:19;5.97;;;3.07;;
11614;SDS011;5863;52.832;4.758;2022-12-16T08:30:06;2.93;;;2.27;;
11614;SDS011;5863;52.832;4.758;2022-12-16T08:32:51;5.40;;;2.70;;
11614;SDS011;5863;52.832;4.758;2022-12-16T08:35:35;4.00;;;2.80;;
11614;SDS011;5863;52.832;4.758;2022-12-16T08:38:19;4.87;;;2.73;;
11614;SDS011;5863;52.832;4.758;2022-12-16T08:41:03;5.77;;;3.10;;
11614;SDS011;5863;52.832;4.758;2022-12-16T08:43:53;5.67;;;3.10;;
11614;SDS011;5863;52.832;4.758;2022-12-16T08:46:38;3.83;;;2.60;;
11614;SDS011;5863;52.832;4.758;2022-12-16T08:49:24;6.27;;;2.60;;
11614;SDS011;5863;52.832;4.758;2022-12-16T08:52:09;6.80;;;2.80;;
11614;SDS011;5863;52.832;4.758;2022-12-16T08:54:53;3.60;;;2.67;;
11614;SDS011;5863;52.832;4.758;2022-12-16T08:57:37;6.97;;;2.70;;
11614;SDS011;5863;52.832;4.758;2022-12-16T09:03:19;10.97;;;3.00;;
11614;SDS011;5863;52.832;4.758;2022-12-16T09:06:03;7.57;;;3.37;;
11614;SDS011;5863;52.832;4.758;2022-12-16T09:08:59;7.40;;;3.20;;
11614;SDS011;5863;52.832;4.758;2022-12-16T09:11:43;3.27;;;2.30;;
11614;SDS011;5863;52.832;4.758;2022-12-16T09:14:27;4.37;;;2.70;;
11614;SDS011;5863;52.832;4.758;2022-12-16T09:17:12;10.07;;;3.00;;
11614;SDS011;5863;52.832;4.758;2022-12-16T09:19:57;5.50;;;2.53;;
11614;SDS011;5863;52.832;4.758;2022-12-16T09:22:41;5.63;;;3.00;;
11614;SDS011;5863;52.832;4.758;2022-12-16T09:25:25;5.80;;;3.10;;
11614;SDS011;5863;52.832;4.758;2022-12-16T09:28:09;6.63;;;2.93;;
11614;SDS011;5863;52.832;4.758;2022-12-16T09:30:54;3.60;;;2.70;;
11614;SDS011;5863;52.832;4.758;2022-12-16T09:33:38;6.33;;;3.10;;
11614;SDS011;5863;52.832;4.758;2022-12-16T09:36:23;3.77;;;2.50;;
11614;SDS011;5863;52.832;4.758;2022-12-16T09:39:07;3.33;;;2.43;;
11614;SDS011;5863;52.832;4.758;2022-12-16T09:41:55;4.03;;;2.63;;
11614;SDS011;5863;52.832;4.758;2022-12-16T09:44:46;5.70;;;2.63;;
11614;SDS011;5863;52.832;4.758;2022-12-16T09:47:39;5.63;;;2.60;;
11614;SDS011;5863;52.832;4.758;2022-12-16T09:50:31;7.87;;;2.70;;
11614;SDS011;5863;52.832;4.758;2022-12-16T09:53:18;4.97;;;2.53;;
11614;SDS011;5863;52.832;4.758;2022-12-16T09:56:05;4.77;;;3.00;;
11614;SDS011;5863;52.832;4.758;2022-12-16T09:58:57;5.33;;;3.20;;
11614;SDS011;5863;52.832;4.758;2022-12-16T10:01:44;4.20;;;2.60;;
11614;SDS011;5863;52.832;4.758;2022-12-16T10:04:31;4.70;;;3.10;;
11614;SDS011;5863;52.832;4.758;2022-12-16T10:07:16;3.67;;;2.40;;
11614;SDS011;5863;52.832;4.758;2022-12-16T10:10:04;5.13;;;2.40;;
11614;SDS011;5863;52.832;4.758;2022-12-16T10:13:02;5.80;;;2.60;;
11614;SDS011;5863;52.832;4.758;2022-12-16T10:15:54;7.83;;;2.90;;
11614;SDS011;5863;52.832;4.758;2022-12-16T10:18:45;7.77;;;3.90;;
11614;SDS011;5863;52.832;4.758;2022-12-16T10:21:39;5.90;;;3.33;;
11614;SDS011;5863;52.832;4.758;2022-12-16T10:24:32;7.53;;;3.00;;
11614;SDS011;5863;52.832;4.758;2022-12-16T10:27:28;5.23;;;2.40;;
11614;SDS011;5863;52.832;4.758;2022-12-16T10:30:20;5.00;;;2.23;;
11614;SDS011;5863;52.832;4.758;2022-12-16T10:33:06;3.33;;;2.27;;
11614;SDS011;5863;52.832;4.758;2022-12-16T10:35:53;3.07;;;1.97;;
11614;SDS011;5863;52.832;4.758;2022-12-16T10:38:40;4.80;;;2.03;;
11614;SDS011;5863;52.832;4.758;2022-12-16T10:41:28;3.60;;;2.10;;
11614;SDS011;5863;52.832;4.758;2022-12-16T10:44:18;4.90;;;2.13;;
11614;SDS011;5863;52.832;4.758;2022-12-16T10:47:06;5.53;;;2.50;;
11614;SDS011;5863;52.832;4.758;2022-12-16T10:49:52;4.80;;;1.83;;
11614;SDS011;5863;52.832;4.758;2022-12-16T10:52:58;3.57;;;2.10;;
11614;SDS011;5863;52.832;4.758;2022-12-16T10:55:47;3.73;;;2.37;;
11614;SDS011;5863;52.832;4.758;2022-12-16T10:58:42;5.43;;;2.27;;
11614;SDS011;5863;52.832;4.758;2022-12-16T11:01:31;6.13;;;2.70;;
11614;SDS011;5863;52.832;4.758;2022-12-16T11:04:29;6.73;;;3.03;;
11614;SDS011;5863;52.832;4.758;2022-12-16T11:07:22;6.57;;;2.93;;
11614;SDS011;5863;52.832;4.758;2022-12-16T11:10:26;5.37;;;2.40;;
11614;SDS011;5863;52.832;4.758;2022-12-16T11:13:15;5.33;;;2.30;;
11614;SDS011;5863;52.832;4.758;2022-12-16T11:16:04;6.67;;;2.40;;
11614;SDS011;5863;52.832;4.758;2022-12-16T11:18:52;2.43;;;1.70;;
11614;SDS011;5863;52.832;4.758;2022-12-16T11:21:36;4.93;;;1.90;;
11614;SDS011;5863;52.832;4.758;2022-12-16T11:24:21;1.97;;;1.33;;
11614;SDS011;5863;52.832;4.758;2022-12-16T11:27:12;5.03;;;1.97;;
11614;SDS011;5863;52.832;4.758;2022-12-16T11:29:58;3.23;;;1.77;;
11614;SDS011;5863;52.832;4.758;2022-12-16T11:32:44;2.47;;;1.60;;
11614;SDS011;5863;52.832;4.758;2022-12-16T11:35:32;2.83;;;1.80;;
11614;SDS011;5863;52.832;4.758;2022-12-16T11:38:22;6.80;;;1.90;;
11614;SDS011;5863;52.832;4.758;2022-12-16T11:41:12;4.33;;;2.00;;
11614;SDS011;5863;52.832;4.758;2022-12-16T11:44:14;2.17;;;1.40;;
11614;SDS011;5863;52.832;4.758;2022-12-16T11:47:03;3.20;;;1.60;;
11614;SDS011;5863;52.832;4.758;2022-12-16T11:49:53;2.70;;;1.63;;
11614;SDS011;5863;52.832;4.758;2022-12-16T11:52:42;4.63;;;1.50;;
11614;SDS011;5863;52.832;4.758;2022-12-16T11:55:30;4.30;;;1.30;;
11614;SDS011;5863;52.832;4.758;2022-12-16T11:58:16;8.17;;;1.67;;
11614;SDS011;5863;52.832;4.758;2022-12-16T12:01:09;2.50;;;1.60;;
11614;SDS011;5863;52.832;4.758;2022-12-16T12:03:58;4.63;;;1.50;;
11614;SDS011;5863;52.832;4.758;2022-12-16T12:07:00;6.80;;;1.50;;
11614;SDS011;5863;52.832;4.758;2022-12-16T12:10:03;4.13;;;1.40;;
11614;SDS011;5863;52.832;4.758;2022-12-16T12:12:56;6.37;;;2.10;;
11614;SDS011;5863;52.832;4.758;2022-12-16T12:15:48;2.97;;;1.63;;
11614;SDS011;5863;52.832;4.758;2022-12-16T12:18:40;3.90;;;1.70;;
11614;SDS011;5863;52.832;4.758;2022-12-16T12:21:32;2.40;;;1.30;;
11614;SDS011;5863;52.832;4.758;2022-12-16T12:24:26;1.80;;;1.40;;
11614;SDS011;5863;52.832;4.758;2022-12-16T12:27:22;3.97;;;1.33;;
11614;SDS011;5863;52.832;4.758;2022-12-16T12:30:13;4.20;;;1.70;;
11614;SDS011;5863;52.832;4.758;2022-12-16T12:33:07;4.13;;;1.67;;
11614;SDS011;5863;52.832;4.758;2022-12-16T12:36:03;2.57;;;1.57;;
11614;SDS011;5863;52.832;4.758;2022-12-16T12:38:59;4.60;;;1.73;;
11614;SDS011;5863;52.832;4.758;2022-12-16T12:42:01;4.20;;;1.60;;
11614;SDS011;5863;52.832;4.758;2022-12-16T12:45:05;2.23;;;1.60;;
11614;SDS011;5863;52.832;4.758;2022-12-16T12:48:17;6.07;;;1.87;;
11614;SDS011;5863;52.832;4.758;2022-12-16T12:51:06;2.47;;;1.57;;
11614;SDS011;5863;52.832;4.758;2022-12-16T12:53:59;2.97;;;1.43;;
11614;SDS011;5863;52.832;4.758;2022-12-16T12:56:52;3.33;;;1.67;;
11614;SDS011;5863;52.832;4.758;2022-12-16T12:59:40;2.37;;;1.37;;
11614;SDS011;5863;52.832;4.758;2022-12-16T13:02:36;6.77;;;1.80;;
11614;SDS011;5863;52.832;4.758;2022-12-16T13:05:29;2.57;;;1.30;;
11614;SDS011;5863;52.832;4.758;2022-12-16T13:08:29;2.97;;;1.63;;
11614;SDS011;5863;52.832;4.758;2022-12-16T13:11:15;3.50;;;1.60;;
11614;SDS011;5863;52.832;4.758;2022-12-16T13:13:59;2.23;;;1.50;;
11614;SDS011;5863;52.832;4.758;2022-12-16T13:19:54;3.43;;;1.80;;
11614;SDS011;5863;52.832;4.758;2022-12-16T13:22:39;3.80;;;1.77;;
11614;SDS011;5863;52.832;4.758;2022-12-16T13:25:30;5.43;;;1.97;;
11614;SDS011;5863;52.832;4.758;2022-12-16T13:28:23;4.53;;;1.70;;
11614;SDS011;5863;52.832;4.758;2022-12-16T13:31:10;2.70;;;1.67;;
11614;SDS011;5863;52.832;4.758;2022-12-16T13:33:57;3.93;;;1.67;;
11614;SDS011;5863;52.832;4.758;2022-12-16T13:36:52;3.03;;;1.80;;
11614;SDS011;5863;52.832;4.758;2022-12-16T13:39:39;2.73;;;1.40;;
11614;SDS011;5863;52.832;4.758;2022-12-16T13:45:32;2.67;;;1.40;;
11614;SDS011;5863;52.832;4.758;2022-12-16T13:48:28;7.23;;;1.60;;
11614;SDS011;5863;52.832;4.758;2022-12-16T13:54:42;2.70;;;1.70;;
11614;SDS011;5863;52.832;4.758;2022-12-16T13:57:34;3.97;;;1.83;;
11614;SDS011;5863;52.832;4.758;2022-12-16T14:00:18;3.00;;;1.80;;
11614;SDS011;5863;52.832;4.758;2022-12-16T14:03:08;2.67;;;1.87;;
11614;SDS011;5863;52.832;4.758;2022-12-16T14:05:55;4.87;;;1.90;;
11614;SDS011;5863;52.832;4.758;2022-12-16T14:08:50;5.53;;;1.60;;
11614;SDS011;5863;52.832;4.758;2022-12-16T14:11:38;3.50;;;1.90;;
11614;SDS011;5863;52.832;4.758;2022-12-16T14:14:30;2.13;;;1.83;;
11614;SDS011;5863;52.832;4.758;2022-12-16T14:17:20;5.40;;;1.90;;
11614;SDS011;5863;52.832;4.758;2022-12-16T14:20:12;5.93;;;1.77;;
11614;SDS011;5863;52.832;4.758;2022-12-16T14:23:03;4.37;;;1.80;;
11614;SDS011;5863;52.832;4.758;2022-12-16T14:26:17;5.30;;;1.60;;
11614;SDS011;5863;52.832;4.758;2022-12-16T14:29:02;2.30;;;1.70;;
11614;SDS011;5863;52.832;4.758;2022-12-16T14:31:59;4.63;;;1.80;;
11614;SDS011;5863;52.832;4.758;2022-12-16T14:34:43;3.73;;;1.90;;
11614;SDS011;5863;52.832;4.758;2022-12-16T14:37:31;3.00;;;1.90;;
11614;SDS011;5863;52.832;4.758;2022-12-16T14:40:18;2.70;;;1.73;;
11614;SDS011;5863;52.832;4.758;2022-12-16T14:43:05;3.10;;;1.93;;
11614;SDS011;5863;52.832;4.758;2022-12-16T14:45:54;2.70;;;1.87;;
11614;SDS011;5863;52.832;4.758;2022-12-16T14:48:39;3.87;;;2.13;;
11614;SDS011;5863;52.832;4.758;2022-12-16T14:51:28;4.73;;;2.10;;
11614;SDS011;5863;52.832;4.758;2022-12-16T14:54:24;3.10;;;2.23;;
11614;SDS011;5863;52.832;4.758;2022-12-16T14:57:10;4.10;;;2.17;;
11614;SDS011;5863;52.832;4.758;2022-12-16T15:00:00;2.67;;;2.20;;
11614;SDS011;5863;52.832;4.758;2022-12-16T15:02:47;3.13;;;2.30;;
11614;SDS011;5863;52.832;4.758;2022-12-16T15:05:36;5.17;;;2.37;;
11614;SDS011;5863;52.832;4.758;2022-12-16T15:08:22;4.53;;;2.60;;
11614;SDS011;5863;52.832;4.758;2022-12-16T15:11:08;5.40;;;2.53;;
11614;SDS011;5863;52.832;4.758;2022-12-16T15:13:56;4.60;;;2.43;;
11614;SDS011;5863;52.832;4.758;2022-12-16T15:16:46;2.73;;;2.40;;
11614;SDS011;5863;52.832;4.758;2022-12-16T15:19:38;5.03;;;2.33;;
11614;SDS011;5863;52.832;4.758;2022-12-16T15:22:26;3.27;;;2.50;;
11614;SDS011;5863;52.832;4.758;2022-12-16T15:25:16;5.70;;;2.40;;
11614;SDS011;5863;52.832;4.758;2022-12-16T15:28:02;2.50;;;2.30;;
11614;SDS011;5863;52.832;4.758;2022-12-16T15:30:46;3.60;;;2.73;;
11614;SDS011;5863;52.832;4.758;2022-12-16T15:33:34;5.20;;;2.97;;
11614;SDS011;5863;52.832;4.758;2022-12-16T15:36:24;7.13;;;3.07;;
11614;SDS011;5863;52.832;4.758;2022-12-16T15:39:16;5.30;;;3.33;;
11614;SDS011;5863;52.832;4.758;2022-12-16T15:42:15;5.93;;;3.63;;
11614;SDS011;5863;52.832;4.758;2022-12-16T15:45:02;5.40;;;3.50;;
11614;SDS011;5863;52.832;4.758;2022-12-16T15:47:48;6.37;;;3.67;;
11614;SDS011;5863;52.832;4.758;2022-12-16T15:50:34;5.90;;;3.63;;
11614;SDS011;5863;52.832;4.758;2022-12-16T15:53:29;5.47;;;3.20;;
11614;SDS011;5863;52.832;4.758;2022-12-16T15:56:20;7.10;;;3.50;;
11614;SDS011;5863;52.832;4.758;2022-12-16T15:59:12;5.27;;;3.87;;
11614;SDS011;5863;52.832;4.758;2022-12-16T16:02:04;5.93;;;3.90;;
11614;SDS011;5863;52.832;4.758;2022-12-16T16:04:53;6.10;;;3.40;;
11614;SDS011;5863;52.832;4.758;2022-12-16T16:07:38;5.10;;;3.50;;
11614;SDS011;5863;52.832;4.758;2022-12-16T16:10:24;3.57;;;3.07;;
11614;SDS011;5863;52.832;4.758;2022-12-16T16:13:08;3.97;;;3.30;;
11614;SDS011;5863;52.832;4.758;2022-12-16T16:15:53;6.90;;;3.53;;
11614;SDS011;5863;52.832;4.758;2022-12-16T16:18:38;5.60;;;3.30;;
11614;SDS011;5863;52.832;4.758;2022-12-16T16:21:23;4.60;;;3.20;;
11614;SDS011;5863;52.832;4.758;2022-12-16T16:24:08;6.03;;;3.40;;
11614;SDS011;5863;52.832;4.758;2022-12-16T16:26:53;5.57;;;3.53;;
11614;SDS011;5863;52.832;4.758;2022-12-16T16:29:37;4.07;;;3.20;;
11614;SDS011;5863;52.832;4.758;2022-12-16T16:32:21;6.10;;;3.70;;
11614;SDS011;5863;52.832;4.758;2022-12-16T16:35:18;4.80;;;3.77;;
11614;SDS011;5863;52.832;4.758;2022-12-16T16:38:02;5.07;;;3.90;;
11614;SDS011;5863;52.832;4.758;2022-12-16T16:40:47;5.67;;;4.00;;
11614;SDS011;5863;52.832;4.758;2022-12-16T16:43:33;5.43;;;3.83;;
11614;SDS011;5863;52.832;4.758;2022-12-16T16:46:21;7.50;;;3.90;;
11614;SDS011;5863;52.832;4.758;2022-12-16T16:49:18;5.53;;;2.93;;
11614;SDS011;5863;52.832;4.758;2022-12-16T16:52:07;3.60;;;3.23;;
11614;SDS011;5863;52.832;4.758;2022-12-16T16:54:57;3.67;;;3.07;;
11614;SDS011;5863;52.832;4.758;2022-12-16T16:57:42;5.53;;;3.47;;